Time,TemperatureF,DewpointF,PressureIn,WindDirection,WindDirectionDegrees,WindSpeedMPH,WindSpeedGustMPH,Humidity,HourlyPrecipIn,Conditions,Clouds,dailyrainin,SoftwareType,DateUTC
2013-11-01 00:02:00,60.8,59.9,29.54,ESE,112,1.7,-999.0,97,-99.99,,,0.00,Acu-Link.com,2013-11-01 04:02:00,
2013-11-01 00:17:00,60.8,59.9,29.53,ESE,112,4.2,-999.0,97,-99.99,,,0.01,Acu-Link.com,2013-11-01 04:17:00,
2013-11-01 00:32:00,60.8,59.9,29.52,SE,135,4.7,-999.0,97,-99.99,,,0.02,Acu-Link.com,2013-11-01 04:32:00,
2013-11-01 00:48:00,60.8,59.9,29.49,SSE,157,3.2,-999.0,97,-99.99,,,0.04,Acu-Link.com,2013-11-01 04:48:00,
2013-11-01 01:03:00,61.0,59.8,29.49,SSE,157,1.1,-999.0,96,-99.99,,,0.06,Acu-Link.com,2013-11-01 05:03:00,
2013-11-01 01:18:00,61.0,59.8,29.49,West,270,7.3,-999.0,96,-99.99,,,0.06,Acu-Link.com,2013-11-01 05:18:00,
2013-11-01 01:33:00,61.2,60.0,29.48,SW,225,5.3,-999.0,96,-99.99,,,0.07,Acu-Link.com,2013-11-01 05:33:00,
2013-11-01 01:48:00,61.3,60.1,29.47,SSE,157,5.3,-999.0,96,-99.99,,,0.07,Acu-Link.com,2013-11-01 05:48:00,
2013-11-01 02:04:00,61.7,60.3,29.46,West,270,3.2,-999.0,95,-99.99,,,0.07,Acu-Link.com,2013-11-01 06:04:00,
2013-11-01 02:19:00,61.5,60.1,29.45,North,0,3.2,-999.0,95,-99.99,,,0.07,Acu-Link.com,2013-11-01 06:19:00,
2013-11-01 02:34:00,61.3,59.9,29.43,NNW,337,2.7,-999.0,95,-99.99,,,0.07,Acu-Link.com,2013-11-01 06:34:00,
2013-11-01 02:49:00,61.2,59.8,29.42,SSE,157,2.7,-999.0,95,-99.99,,,0.07,Acu-Link.com,2013-11-01 06:49:00,
2013-11-01 03:05:00,61.2,59.8,29.42,SSW,202,5.3,-999.0,95,-99.99,,,0.10,Acu-Link.com,2013-11-01 07:05:00,
2013-11-01 03:20:00,60.8,59.7,29.42,West,270,2.2,-999.0,96,-99.99,,,0.12,Acu-Link.com,2013-11-01 07:20:00,
2013-11-01 03:35:00,60.6,59.5,29.40,SE,135,3.2,-999.0,96,-99.99,,,0.13,Acu-Link.com,2013-11-01 07:35:00,
2013-11-01 03:50:00,60.8,59.7,29.39,NNE,22,2.7,-999.0,96,-99.99,,,0.14,Acu-Link.com,2013-11-01 07:50:00,
2013-11-01 04:05:00,60.8,59.7,29.38,WNW,292,5.3,-999.0,96,-99.99,,,0.15,Acu-Link.com,2013-11-01 08:05:00,
2013-11-01 04:21:00,61.2,60.0,29.37,WSW,247,3.7,-999.0,96,-99.99,,,0.16,Acu-Link.com,2013-11-01 08:21:00,
2013-11-01 04:36:00,61.2,60.0,29.35,West,270,8.3,-999.0,96,-99.99,,,0.16,Acu-Link.com,2013-11-01 08:36:00,
2013-11-01 04:51:00,61.3,60.1,29.34,ESE,112,4.2,-999.0,96,-99.99,,,0.17,Acu-Link.com,2013-11-01 08:51:00,
2013-11-01 05:06:00,61.7,60.5,29.34,NNW,337,3.2,-999.0,96,-99.99,,,0.17,Acu-Link.com,2013-11-01 09:06:00,
2013-11-01 05:21:00,62.1,60.6,29.33,West,270,3.2,-999.0,95,-99.99,,,0.17,Acu-Link.com,2013-11-01 09:21:00,
2013-11-01 05:36:00,62.6,60.8,29.32,East,90,8.3,-999.0,94,-99.99,,,0.18,Acu-Link.com,2013-11-01 09:36:00,
2013-11-01 05:52:00,63.0,61.2,29.32,East,90,5.8,-999.0,94,-99.99,,,0.18,Acu-Link.com,2013-11-01 09:52:00,
2013-11-01 06:07:00,63.3,61.5,29.31,South,180,2.7,-999.0,94,-99.99,,,0.18,Acu-Link.com,2013-11-01 10:07:00,
2013-11-01 06:22:00,63.7,61.6,29.31,WNW,292,4.2,-999.0,93,-99.99,,,0.18,Acu-Link.com,2013-11-01 10:22:00,
2013-11-01 06:37:00,62.4,60.9,29.36,West,270,8.3,-999.0,95,-99.99,,,0.25,Acu-Link.com,2013-11-01 10:37:00,
2013-11-01 06:52:00,62.2,60.1,29.35,SSW,202,3.7,-999.0,93,-99.99,,,0.25,Acu-Link.com,2013-11-01 10:52:00,
2013-11-01 07:08:00,61.7,60.0,29.35,SSE,157,0.0,-999.0,94,-99.99,,,0.25,Acu-Link.com,2013-11-01 11:08:00,
2013-11-01 07:23:00,60.8,59.4,29.36,West,270,4.7,-999.0,95,-99.99,,,0.25,Acu-Link.com,2013-11-01 11:23:00,
2013-11-01 07:38:00,61.5,58.5,29.34,SW,225,5.3,-999.0,90,-99.99,,,0.25,Acu-Link.com,2013-11-01 11:38:00,
2013-11-01 07:54:00,61.0,58.0,29.35,West,270,2.7,-999.0,90,-99.99,,,0.25,Acu-Link.com,2013-11-01 11:54:00,
2013-11-01 08:09:00,60.1,58.4,29.38,West,270,3.7,-999.0,94,-99.99,,,0.26,Acu-Link.com,2013-11-01 12:09:00,
2013-11-01 08:24:00,59.7,58.0,29.39,WSW,247,3.2,-999.0,94,-99.99,,,0.26,Acu-Link.com,2013-11-01 12:24:00,
2013-11-01 08:39:00,59.4,58.0,29.40,SE,135,4.7,-999.0,95,-99.99,,,0.28,Acu-Link.com,2013-11-01 12:39:00,
2013-11-01 08:54:00,59.0,57.6,29.37,ENE,67,2.7,-999.0,95,-99.99,,,0.28,Acu-Link.com,2013-11-01 12:54:00,
2013-11-01 09:09:00,58.8,57.4,29.39,WSW,247,5.3,-999.0,95,-99.99,,,0.29,Acu-Link.com,2013-11-01 13:09:00,
2013-11-01 09:25:00,58.6,57.2,29.41,WNW,292,3.2,-999.0,95,-99.99,,,0.29,Acu-Link.com,2013-11-01 13:25:00,
2013-11-01 09:40:00,59.2,57.2,29.40,WSW,247,8.9,-999.0,93,-99.99,,,0.29,Acu-Link.com,2013-11-01 13:40:00,
2013-11-01 09:55:00,60.3,57.7,29.42,WSW,247,5.8,-999.0,91,-99.99,,,0.29,Acu-Link.com,2013-11-01 13:55:00,
2013-11-01 10:10:00,60.3,57.0,29.43,SSW,202,5.8,-999.0,89,-99.99,,,0.29,Acu-Link.com,2013-11-01 14:10:00,
2013-11-01 10:25:00,61.3,57.1,29.44,ESE,112,1.7,-999.0,86,-99.99,,,0.29,Acu-Link.com,2013-11-01 14:25:00,
2013-11-01 10:41:00,62.8,58.2,29.42,West,270,6.8,-999.0,85,-99.99,,,0.29,Acu-Link.com,2013-11-01 14:41:00,
2013-11-01 10:56:00,63.7,57.8,29.41,SSE,157,1.7,-999.0,81,-99.99,,,0.29,Acu-Link.com,2013-11-01 14:56:00,
2013-11-01 11:11:00,62.4,57.2,29.42,West,270,7.8,-999.0,83,-99.99,,,0.29,Acu-Link.com,2013-11-01 15:11:00,
2013-11-01 11:26:00,62.2,57.3,29.41,WSW,247,6.8,-999.0,84,-99.99,,,0.29,Acu-Link.com,2013-11-01 15:26:00,
2013-11-01 11:41:00,62.4,56.8,29.42,WSW,247,2.2,-999.0,82,-99.99,,,0.29,Acu-Link.com,2013-11-01 15:41:00,
2013-11-01 11:56:00,63.1,56.5,29.42,West,270,3.7,-999.0,79,-99.99,,,0.29,Acu-Link.com,2013-11-01 15:56:00,
2013-11-01 12:12:00,63.9,55.1,29.43,WSW,247,5.3,-999.0,73,-99.99,,,0.29,Acu-Link.com,2013-11-01 16:12:00,
2013-11-01 12:27:00,66.6,52.7,29.43,West,270,4.2,-999.0,61,-99.99,,,0.30,Acu-Link.com,2013-11-01 16:27:00,
2013-11-01 12:42:00,68.7,51.4,29.42,SSW,202,9.9,-999.0,54,-99.99,,,0.30,Acu-Link.com,2013-11-01 16:42:00,
2013-11-01 12:57:00,69.6,50.1,29.42,West,270,9.4,-999.0,50,-99.99,,,0.30,Acu-Link.com,2013-11-01 16:57:00,
2013-11-01 13:12:00,69.4,49.4,29.41,West,270,8.9,-999.0,49,-99.99,,,0.31,Acu-Link.com,2013-11-01 17:12:00,
2013-11-01 13:27:00,67.6,49.3,29.42,West,270,4.2,-999.0,52,-99.99,,,0.31,Acu-Link.com,2013-11-01 17:27:00,
2013-11-01 13:42:00,69.8,47.5,29.41,West,270,8.9,-999.0,45,-99.99,,,0.31,Acu-Link.com,2013-11-01 17:42:00,
2013-11-01 13:57:00,70.9,47.9,29.41,West,270,13.0,-999.0,44,-99.99,,,0.31,Acu-Link.com,2013-11-01 17:57:00,
2013-11-01 14:13:00,71.1,47.5,29.41,West,270,3.2,-999.0,43,-99.99,,,0.31,Acu-Link.com,2013-11-01 18:13:00,
2013-11-01 14:28:00,71.2,45.0,29.42,WSW,247,11.4,-999.0,39,-99.99,,,0.31,Acu-Link.com,2013-11-01 18:28:00,
2013-11-01 14:43:00,71.2,42.9,29.42,WNW,292,6.3,-999.0,36,-99.99,,,0.31,Acu-Link.com,2013-11-01 18:43:00,
2013-11-01 14:58:00,70.9,43.3,29.43,SSW,202,17.6,-999.0,37,-99.99,,,0.31,Acu-Link.com,2013-11-01 18:58:00,
2013-11-01 15:13:00,70.5,43.0,29.43,West,270,9.4,-999.0,37,-99.99,,,0.31,Acu-Link.com,2013-11-01 19:13:00,
2013-11-01 15:29:00,70.5,43.7,29.43,West,270,13.5,-999.0,38,-99.99,,,0.31,Acu-Link.com,2013-11-01 19:29:00,
2013-11-01 15:44:00,70.5,44.3,29.43,West,270,6.8,-999.0,39,-99.99,,,0.31,Acu-Link.com,2013-11-01 19:44:00,
2013-11-01 15:59:00,70.2,43.4,29.44,West,270,10.9,-999.0,38,-99.99,,,0.31,Acu-Link.com,2013-11-01 19:59:00,
2013-11-01 16:14:00,69.1,43.1,29.44,South,180,9.4,-999.0,39,-99.99,,,0.33,Acu-Link.com,2013-11-01 20:14:00,
2013-11-01 16:30:00,69.3,44.6,29.45,SW,225,3.2,-999.0,41,-99.99,,,0.33,Acu-Link.com,2013-11-01 20:30:00,
2013-11-01 16:45:00,68.7,43.4,29.45,WSW,247,10.9,-999.0,40,-99.99,,,0.33,Acu-Link.com,2013-11-01 20:45:00,
2013-11-01 17:00:00,68.0,43.4,29.46,WSW,247,3.2,-999.0,41,-99.99,,,0.33,Acu-Link.com,2013-11-01 21:00:00,
2013-11-01 17:15:00,67.8,42.6,29.46,WSW,247,5.3,-999.0,40,-99.99,,,0.33,Acu-Link.com,2013-11-01 21:15:00,
2013-11-01 17:30:00,67.3,42.8,29.48,West,270,11.4,-999.0,41,-99.99,,,0.33,Acu-Link.com,2013-11-01 21:30:00,
2013-11-01 17:45:00,64.8,42.4,29.48,West,270,9.9,-999.0,44,-99.99,,,0.33,Acu-Link.com,2013-11-01 21:45:00,
2013-11-01 18:01:00,63.7,42.5,29.49,WSW,247,4.7,-999.0,46,-99.99,,,0.33,Acu-Link.com,2013-11-01 22:01:00,
2013-11-01 18:16:00,62.4,42.4,29.49,WSW,247,3.2,-999.0,48,-99.99,,,0.33,Acu-Link.com,2013-11-01 22:16:00,
2013-11-01 18:31:00,60.3,42.6,29.50,SW,225,2.7,-999.0,52,-99.99,,,0.33,Acu-Link.com,2013-11-01 22:31:00,
2013-11-01 18:46:00,58.5,42.9,29.50,WSW,247,0.0,-999.0,56,-99.99,,,0.33,Acu-Link.com,2013-11-01 22:46:00,
2013-11-01 19:01:00,55.9,43.5,29.52,SW,225,0.0,-999.0,63,-99.99,,,0.33,Acu-Link.com,2013-11-01 23:01:00,
2013-11-01 19:16:00,53.6,44.1,29.53,SSW,202,0.0,-999.0,70,-99.99,,,0.33,Acu-Link.com,2013-11-01 23:16:00,
2013-11-01 19:31:00,51.8,44.8,29.54,SW,225,0.0,-999.0,77,-99.99,,,0.33,Acu-Link.com,2013-11-01 23:31:00,
2013-11-01 19:46:00,50.2,44.3,29.54,South,180,0.0,-999.0,80,-99.99,,,0.33,Acu-Link.com,2013-11-01 23:46:00,
2013-11-01 20:01:00,49.1,44.2,29.54,South,180,0.0,-999.0,83,-99.99,,,0.33,Acu-Link.com,2013-11-02 00:01:00,
2013-11-01 20:17:00,47.8,43.8,29.54,East,90,0.0,-999.0,86,-99.99,,,0.33,Acu-Link.com,2013-11-02 00:17:00,
2013-11-01 20:32:00,47.5,43.8,29.54,SE,135,0.0,-999.0,87,-99.99,,,0.33,Acu-Link.com,2013-11-02 00:32:00,
2013-11-01 20:47:00,47.1,44.3,29.55,WNW,292,0.0,-999.0,90,-99.99,,,0.33,Acu-Link.com,2013-11-02 00:47:00,
2013-11-01 21:02:00,47.1,44.3,29.55,West,270,0.0,-999.0,90,-99.99,,,0.33,Acu-Link.com,2013-11-02 01:02:00,
2013-11-01 21:18:00,47.3,45.1,29.56,ENE,67,0.0,-999.0,92,-99.99,,,0.33,Acu-Link.com,2013-11-02 01:18:00,
2013-11-01 21:33:00,46.9,44.4,29.56,ENE,67,2.2,-999.0,91,-99.99,,,0.33,Acu-Link.com,2013-11-02 01:33:00,
2013-11-01 21:48:00,46.8,44.3,29.57,SSW,202,0.0,-999.0,91,-99.99,,,0.33,Acu-Link.com,2013-11-02 01:48:00,
2013-11-01 22:03:00,47.3,44.8,29.56,South,180,0.0,-999.0,91,-99.99,,,0.33,Acu-Link.com,2013-11-02 02:03:00,
2013-11-01 22:18:00,46.0,43.8,29.57,West,270,0.0,-999.0,92,-99.99,,,0.33,Acu-Link.com,2013-11-02 02:18:00,
2013-11-01 22:34:00,45.5,43.6,29.56,East,90,0.0,-999.0,93,-99.99,,,0.33,Acu-Link.com,2013-11-02 02:34:00,
2013-11-01 22:49:00,45.0,43.1,29.57,ESE,112,0.0,-999.0,93,-99.99,,,0.33,Acu-Link.com,2013-11-02 02:49:00,
2013-11-01 23:04:00,44.6,43.0,29.57,South,180,2.2,-999.0,94,-99.99,,,0.33,Acu-Link.com,2013-11-02 03:04:00,
2013-11-01 23:19:00,43.9,42.3,29.57,SE,135,2.2,-999.0,94,-99.99,,,0.33,Acu-Link.com,2013-11-02 03:19:00,
2013-11-01 23:34:00,43.3,41.7,29.57,ENE,67,0.0,-999.0,94,-99.99,,,0.33,Acu-Link.com,2013-11-02 03:34:00,
2013-11-01 23:50:00,43.3,42.0,29.56,NE,45,0.0,-999.0,95,-99.99,,,0.33,Acu-Link.com,2013-11-02 03:50:00,